Time;durP1;ratioP1;P1;durP2;ratioP2;P2;SDS_P1;SDS_P2;PMS_P1;PMS_P2;Temp;Humidity;BMP_temperature;BMP_pressure;BME280_temperature;BME280_humidity;BME280_pressure;Samples;Min_cycle;Max_cycle;Signal;HPM_P1;HPM_P2
2022/11/24 00:02:00;;;;;;;2.33;2.13;;;;;;;;;;5059126;28;20567;-65
2022/11/24 00:04:28;;;;;;;2.35;2.15;;;;;;;;;;5040326;28;20300;-65
2022/11/24 00:06:56;;;;;;;2.45;2.25;;;;;;;;;;5039838;28;20255;-65
2022/11/24 00:09:24;;;;;;;2.38;2.17;;;;;;;;;;5038893;28;20201;-65
2022/11/24 00:11:51;;;;;;;3.08;2.63;;;;;;;;;;5038135;28;20271;-65
2022/11/24 00:14:21;;;;;;;2.33;2.13;;;;;;;;;;5038085;28;20279;-65
2022/11/24 00:16:48;;;;;;;2.50;2.30;;;;;;;;;;5038246;28;20268;-65
2022/11/24 00:19:16;;;;;;;2.05;1.92;;;;;;;;;;5042059;28;20197;-66
2022/11/24 00:21:44;;;;;;;2.47;2.15;;;;;;;;;;5058039;28;20204;-66
2022/11/24 00:24:12;;;;;;;2.25;2.15;;;;;;;;;;5056801;28;20247;-66
2022/11/24 00:26:40;;;;;;;2.20;2.00;;;;;;;;;;5049366;28;20212;-66
2022/11/24 00:29:08;;;;;;;1.90;1.80;;;;;;;;;;5056568;28;20591;-66
2022/11/24 00:31:38;;;;;;;2.50;2.30;;;;;;;;;;5057699;28;20201;-66
2022/11/24 00:34:07;;;;;;;2.50;2.30;;;;;;;;;;5057877;28;20266;-66
2022/11/24 00:36:36;;;;;;;2.45;2.25;;;;;;;;;;5057620;28;20521;-66
2022/11/24 00:39:06;;;;;;;2.55;2.35;;;;;;;;;;5057988;28;20246;-65
2022/11/24 00:41:34;;;;;;;2.40;2.20;;;;;;;;;;5057220;28;20227;-65
2022/11/24 00:44:02;;;;;;;2.72;2.08;;;;;;;;;;5058193;28;20205;-65
2022/11/24 00:46:30;;;;;;;2.22;2.03;;;;;;;;;;5057869;28;20545;-65
2022/11/24 00:48:59;;;;;;;2.13;2.03;;;;;;;;;;5055942;28;20232;-65
2022/11/24 00:51:29;;;;;;;2.50;2.30;;;;;;;;;;5037456;28;20197;-65
2022/11/24 00:53:56;;;;;;;2.47;1.83;;;;;;;;;;5036862;28;20267;-65
2022/11/24 00:56:24;;;;;;;2.78;1.88;;;;;;;;;;5049817;28;20228;-65
2022/11/24 00:58:52;;;;;;;2.40;2.20;;;;;;;;;;5057609;28;20201;-66
2022/11/24 01:01:22;;;;;;;2.05;1.80;;;;;;;;;;5047838;28;20245;-65
2022/11/24 01:03:49;;;;;;;2.20;2.00;;;;;;;;;;5050995;28;20239;-65
2022/11/24 01:06:20;;;;;;;2.33;2.13;;;;;;;;;;5057502;28;20594;-66
2022/11/24 01:08:48;;;;;;;2.30;2.10;;;;;;;;;;5057892;28;20259;-66
2022/11/24 01:11:17;;;;;;;2.30;2.03;;;;;;;;;;5056176;28;20205;-65
2022/11/24 01:13:45;;;;;;;2.30;2.10;;;;;;;;;;5057878;28;20295;-65
2022/11/24 01:16:17;;;;;;;1.88;1.77;;;;;;;;;;5057757;28;20618;-65
2022/11/24 01:18:45;;;;;;;2.33;2.13;;;;;;;;;;5055144;28;20262;-66
2022/11/24 01:21:13;;;;;;;2.10;1.90;;;;;;;;;;5039023;28;20245;-66
2022/11/24 01:23:42;;;;;;;2.13;1.98;;;;;;;;;;5054820;28;20537;-65
2022/11/24 01:26:11;;;;;;;2.30;1.90;;;;;;;;;;5045785;28;20635;-65
2022/11/24 01:28:39;;;;;;;2.40;2.20;;;;;;;;;;5037852;28;20212;-65
2022/11/24 01:31:08;;;;;;;2.30;2.10;;;;;;;;;;5037877;28;20205;-65
2022/11/24 01:33:36;;;;;;;2.00;1.90;;;;;;;;;;5037975;28;20213;-66
2022/11/24 01:36:04;;;;;;;2.25;2.10;;;;;;;;;;5037408;28;20697;-66
2022/11/24 01:38:32;;;;;;;1.80;1.70;;;;;;;;;;5037823;28;20212;-66
2022/11/24 01:41:05;;;;;;;2.10;2.00;;;;;;;;;;5037854;28;20554;-65
2022/11/24 01:43:33;;;;;;;1.90;1.70;;;;;;;;;;5037229;28;20206;-65
2022/11/24 01:46:05;;;;;;;2.05;1.90;;;;;;;;;;5037346;28;20783;-65
2022/11/24 01:48:36;;;;;;;2.10;1.90;;;;;;;;;;5037580;28;20568;-65
2022/11/24 01:51:08;;;;;;;1.70;1.60;;;;;;;;;;5056265;28;20212;-66
2022/11/24 01:53:36;;;;;;;1.85;1.75;;;;;;;;;;5053497;28;20219;-66
2022/11/24 01:56:06;;;;;;;2.20;2.05;;;;;;;;;;5050668;28;20316;-66
2022/11/24 01:58:35;;;;;;;2.22;2.03;;;;;;;;;;5037278;28;20380;-65
2022/11/24 02:01:03;;;;;;;2.00;1.90;;;;;;;;;;5037820;28;20245;-66
2022/11/24 02:03:33;;;;;;;2.00;1.90;;;;;;;;;;5037373;28;20229;-66
2022/11/24 02:06:02;;;;;;;2.05;1.85;;;;;;;;;;5037316;28;20205;-66
2022/11/24 02:08:33;;;;;;;1.85;1.73;;;;;;;;;;5040984;28;20212;-65
2022/11/24 02:11:02;;;;;;;1.85;1.75;;;;;;;;;;5055987;28;20216;-65
2022/11/24 02:13:32;;;;;;;1.92;1.83;;;;;;;;;;5056208;28;20582;-65
2022/11/24 02:16:00;;;;;;;1.67;1.58;;;;;;;;;;5056178;28;20243;-65
2022/11/24 02:18:28;;;;;;;2.03;1.83;;;;;;;;;;5055911;28;20205;-65
2022/11/24 02:20:56;;;;;;;2.10;1.90;;;;;;;;;;5057065;28;20204;-65
2022/11/24 02:23:25;;;;;;;1.90;1.80;;;;;;;;;;5052340;28;20657;-65
2022/11/24 02:25:58;;;;;;;2.15;1.95;;;;;;;;;;5040908;28;20547;-65
2022/11/24 02:28:29;;;;;;;1.95;1.85;;;;;;;;;;5036474;28;20202;-65
2022/11/24 02:30:57;;;;;;;1.90;1.70;;;;;;;;;;5040633;28;20197;-65
2022/11/24 02:33:25;;;;;;;1.65;1.48;;;;;;;;;;5048820;28;20221;-65
2022/11/24 02:35:53;;;;;;;2.25;1.67;;;;;;;;;;5036773;28;20508;-65
2022/11/24 02:38:29;;;;;;;2.03;1.70;;;;;;;;;;5036597;28;20278;-65
2022/11/24 02:40:57;;;;;;;2.08;1.88;;;;;;;;;;5045051;28;20511;-65
2022/11/24 02:43:25;;;;;;;1.70;1.60;;;;;;;;;;5056416;28;20252;-65
2022/11/24 02:45:54;;;;;;;1.92;1.83;;;;;;;;;;5057138;28;20284;-65
2022/11/24 02:48:21;;;;;;;1.70;1.60;;;;;;;;;;5057033;28;20205;-66
2022/11/24 02:50:49;;;;;;;1.70;1.60;;;;;;;;;;5057063;28;20209;-66
2022/11/24 02:53:17;;;;;;;2.10;1.90;;;;;;;;;;5040821;28;20241;-66
2022/11/24 02:55:45;;;;;;;1.70;1.60;;;;;;;;;;5037052;28;20233;-66
2022/11/24 02:58:13;;;;;;;1.70;1.60;;;;;;;;;;5050525;28;20201;-65
2022/11/24 03:00:41;;;;;;;1.70;1.60;;;;;;;;;;5054868;28;20222;-65
2022/11/24 03:03:10;;;;;;;1.60;1.50;;;;;;;;;;5048947;28;20213;-65
2022/11/24 03:05:38;;;;;;;1.52;1.42;;;;;;;;;;5056367;28;20197;-65
2022/11/24 03:08:06;;;;;;;1.63;1.52;;;;;;;;;;5055658;28;20284;-66
2022/11/24 03:10:33;;;;;;;1.80;1.70;;;;;;;;;;5056686;28;20205;-66
2022/11/24 03:13:01;;;;;;;1.60;1.50;;;;;;;;;;5039376;28;20205;-66
2022/11/24 03:15:28;;;;;;;1.50;1.40;;;;;;;;;;5036405;28;20597;-66
2022/11/24 03:17:56;;;;;;;1.40;1.30;;;;;;;;;;5038447;28;20212;-66
2022/11/24 03:20:25;;;;;;;1.48;1.38;;;;;;;;;;5036896;28;20217;-66
2022/11/24 03:22:53;;;;;;;1.50;1.40;;;;;;;;;;5036776;28;20287;-65
2022/11/24 03:25:21;;;;;;;1.48;1.38;;;;;;;;;;5039876;28;20214;-65
2022/11/24 03:27:49;;;;;;;1.50;1.40;;;;;;;;;;5039701;28;20201;-66
2022/11/24 03:30:17;;;;;;;1.63;1.52;;;;;;;;;;5057124;28;20200;-66
2022/11/24 03:32:44;;;;;;;1.55;1.45;;;;;;;;;;5059434;28;20229;-66
2022/11/24 03:35:12;;;;;;;1.42;1.33;;;;;;;;;;5056629;28;20202;-66
2022/11/24 03:37:41;;;;;;;1.42;1.33;;;;;;;;;;5039616;28;20221;-66
2022/11/24 03:40:09;;;;;;;1.30;1.20;;;;;;;;;;5040077;28;20228;-66
2022/11/24 03:42:37;;;;;;;1.40;1.30;;;;;;;;;;5039612;28;20210;-66
2022/11/24 03:45:05;;;;;;;1.33;1.23;;;;;;;;;;5039729;28;20587;-66
2022/11/24 03:47:33;;;;;;;1.45;1.35;;;;;;;;;;5057439;28;20241;-66
2022/11/24 03:50:00;;;;;;;1.50;1.40;;;;;;;;;;5059231;28;20204;-66
2022/11/24 03:52:28;;;;;;;1.50;1.40;;;;;;;;;;5059144;28;20308;-66
2022/11/24 03:54:57;;;;;;;1.40;1.30;;;;;;;;;;5059343;28;20267;-66
2022/11/24 03:57:25;;;;;;;1.88;1.30;;;;;;;;;;5050381;28;20305;-66
2022/11/24 03:59:52;;;;;;;1.42;1.33;;;;;;;;;;5046492;28;20579;-66
2022/11/24 04:02:20;;;;;;;1.23;1.13;;;;;;;;;;5056218;28;20236;-66
2022/11/24 04:04:49;;;;;;;1.40;1.30;;;;;;;;;;5039404;28;20594;-66
2022/11/24 04:07:17;;;;;;;1.25;1.15;;;;;;;;;;5050184;28;20197;-66
2022/11/24 04:09:45;;;;;;;1.45;1.20;;;;;;;;;;5058800;28;20512;-66
2022/11/24 04:14:59;;;;;;;1.27;1.23;;;;;;;;;;5058835;28;20724;-65
2022/11/24 04:17:27;;;;;;;1.50;1.40;;;;;;;;;;5057988;28;20311;-66
2022/11/24 04:19:54;;;;;;;1.58;1.42;;;;;;;;;;5038414;28;20237;-66
2022/11/24 04:22:22;;;;;;;1.25;1.15;;;;;;;;;;5038703;28;20206;-66
2022/11/24 04:24:50;;;;;;;1.40;1.30;;;;;;;;;;5038610;28;20206;-66
2022/11/24 04:27:19;;;;;;;1.17;1.08;;;;;;;;;;5039599;28;20205;-66
2022/11/24 04:29:47;;;;;;;1.30;1.20;;;;;;;;;;5046996;28;20198;-66
2022/11/24 04:32:14;;;;;;;1.50;1.40;;;;;;;;;;5057796;28;20201;-66
2022/11/24 04:34:42;;;;;;;1.20;1.20;;;;;;;;;;5057685;28;20266;-66
2022/11/24 04:37:10;;;;;;;1.38;1.27;;;;;;;;;;5048629;28;20705;-66
2022/11/24 04:39:38;;;;;;;1.40;1.30;;;;;;;;;;5038951;28;20213;-66
2022/11/24 04:42:07;;;;;;;1.10;1.00;;;;;;;;;;5038466;28;20202;-66
2022/11/24 04:44:36;;;;;;;1.42;1.20;;;;;;;;;;5038652;28;20206;-66
2022/11/24 04:47:04;;;;;;;1.20;1.10;;;;;;;;;;5037965;28;20205;-66
2022/11/24 04:49:32;;;;;;;1.13;1.02;;;;;;;;;;5039054;28;20194;-65
2022/11/24 04:52:00;;;;;;;1.20;1.10;;;;;;;;;;5044486;28;20207;-65
2022/11/24 04:54:28;;;;;;;1.40;1.30;;;;;;;;;;5056740;28;20208;-65
2022/11/24 04:56:55;;;;;;;1.50;1.30;;;;;;;;;;5047051;28;20602;-65
2022/11/24 04:59:23;;;;;;;1.30;1.20;;;;;;;;;;5041041;28;20233;-66
2022/11/24 05:01:52;;;;;;;1.05;1.05;;;;;;;;;;5045486;28;20289;-66
2022/11/24 05:04:20;;;;;;;1.20;1.10;;;;;;;;;;5037393;28;20215;-66
2022/11/24 05:06:47;;;;;;;0.90;0.90;;;;;;;;;;5046334;28;20255;-66
2022/11/24 05:09:15;;;;;;;1.25;0.90;;;;;;;;;;5039315;28;20591;-66
2022/11/24 05:11:43;;;;;;;0.90;0.90;;;;;;;;;;5036905;28;20217;-66
2022/11/24 05:14:10;;;;;;;0.98;0.95;;;;;;;;;;5037005;28;20205;-66
2022/11/24 05:16:38;;;;;;;1.30;1.20;;;;;;;;;;5036785;28;20225;-66
2022/11/24 05:19:07;;;;;;;1.10;1.00;;;;;;;;;;5037012;28;20228;-66
2022/11/24 05:21:34;;;;;;;1.20;1.10;;;;;;;;;;5037363;28;20635;-66
2022/11/24 05:24:02;;;;;;;1.20;1.10;;;;;;;;;;5037336;28;20201;-66
2022/11/24 05:26:29;;;;;;;0.98;0.95;;;;;;;;;;5039215;28;20470;-66
2022/11/24 05:28:57;;;;;;;0.93;0.93;;;;;;;;;;5056331;28;20201;-66
2022/11/24 05:31:25;;;;;;;0.90;0.90;;;;;;;;;;5055439;28;20726;-66
2022/11/24 05:33:52;;;;;;;0.80;0.80;;;;;;;;;;5036913;28;20205;-65
2022/11/24 05:39:06;;;;;;;1.05;1.00;;;;;;;;;;5054941;28;20504;-65
2022/11/24 05:41:33;;;;;;;0.90;0.90;;;;;;;;;;5055859;28;20196;-65
2022/11/24 05:44:00;;;;;;;1.10;1.00;;;;;;;;;;5055709;28;20205;-66
2022/11/24 05:46:28;;;;;;;1.10;1.00;;;;;;;;;;5037999;28;20200;-66
2022/11/24 05:48:55;;;;;;;0.90;0.90;;;;;;;;;;5035330;28;20587;-66
2022/11/24 05:51:24;;;;;;;0.98;0.98;;;;;;;;;;5039119;28;20201;-66
2022/11/24 05:53:51;;;;;;;1.08;1.08;;;;;;;;;;5054312;28;20610;-66
2022/11/24 05:56:19;;;;;;;0.80;0.80;;;;;;;;;;5052589;28;20441;-66
2022/11/24 05:58:46;;;;;;;0.85;0.80;;;;;;;;;;5035632;28;20621;-65
2022/11/24 06:01:13;;;;;;;1.15;1.05;;;;;;;;;;5039952;28;20729;-66
2022/11/24 06:03:41;;;;;;;1.00;1.00;;;;;;;;;;5053974;28;20211;-66
2022/11/24 06:06:08;;;;;;;1.10;1.00;;;;;;;;;;5050472;28;20209;-66
2022/11/24 06:08:37;;;;;;;0.77;0.77;;;;;;;;;;5034372;28;20227;-66
2022/11/24 06:11:17;;;;;;;0.85;0.85;;;;;;;;;;5033935;28;20198;-66
2022/11/24 06:13:45;;;;;;;0.70;0.70;;;;;;;;;;5053995;28;20270;-66
2022/11/24 06:16:13;;;;;;;1.10;1.00;;;;;;;;;;5050281;28;20194;-66
2022/11/24 06:18:40;;;;;;;0.90;0.90;;;;;;;;;;5035091;28;20279;-66
2022/11/24 06:21:07;;;;;;;0.93;0.85;;;;;;;;;;5033158;28;20211;-66
2022/11/24 06:23:35;;;;;;;0.80;0.80;;;;;;;;;;5034007;28;20206;-66
2022/11/24 06:26:03;;;;;;;1.33;1.00;;;;;;;;;;5040003;28;20598;-66
2022/11/24 06:28:31;;;;;;;0.90;0.90;;;;;;;;;;5043233;28;20637;-66
2022/11/24 06:31:01;;;;;;;0.90;0.90;;;;;;;;;;5037026;28;20200;-66
2022/11/24 06:33:31;;;;;;;0.77;0.77;;;;;;;;;;5046961;28;20202;-65
2022/11/24 06:36:01;;;;;;;0.77;0.77;;;;;;;;;;5033377;28;20477;-66
2022/11/24 06:38:29;;;;;;;0.95;0.95;;;;;;;;;;5033627;28;20324;-66
2022/11/24 06:41:00;;;;;;;0.80;0.80;;;;;;;;;;5034523;28;20288;-66
2022/11/24 06:43:29;;;;;;;0.80;0.80;;;;;;;;;;5033234;28;20198;-65
2022/11/24 06:45:56;;;;;;;1.10;1.00;;;;;;;;;;5033272;28;20212;-71
2022/11/24 06:48:23;;;;;;;0.70;0.70;;;;;;;;;;5032601;28;20205;-65
2022/11/24 06:50:51;;;;;;;1.02;0.93;;;;;;;;;;5035842;28;20198;-66
2022/11/24 06:53:18;;;;;;;0.70;0.70;;;;;;;;;;5054550;28;20211;-66
2022/11/24 06:55:46;;;;;;;0.70;0.70;;;;;;;;;;5053375;28;20493;-66
2022/11/24 06:58:14;;;;;;;0.80;0.80;;;;;;;;;;5036900;28;20235;-66
2022/11/24 07:00:43;;;;;;;0.70;0.70;;;;;;;;;;5036550;28;20233;-66
2022/11/24 07:03:14;;;;;;;0.73;0.73;;;;;;;;;;5056712;28;20207;-66
2022/11/24 07:05:42;;;;;;;0.70;0.68;;;;;;;;;;5041890;28;20280;-65
2022/11/24 07:08:09;;;;;;;0.90;0.88;;;;;;;;;;5037622;28;20198;-65
2022/11/24 07:10:37;;;;;;;0.80;0.75;;;;;;;;;;5037301;28;20201;-65
2022/11/24 07:13:07;;;;;;;0.70;0.70;;;;;;;;;;5037236;28;20208;-65
2022/11/24 07:15:34;;;;;;;0.73;0.73;;;;;;;;;;5037404;28;20601;-65
2022/11/24 07:18:03;;;;;;;0.82;0.80;;;;;;;;;;5056947;28;20224;-65
2022/11/24 07:20:30;;;;;;;0.90;0.80;;;;;;;;;;5055492;28;20220;-65
2022/11/24 07:22:58;;;;;;;1.00;0.90;;;;;;;;;;5057357;28;20506;-66
2022/11/24 07:25:25;;;;;;;1.10;0.80;;;;;;;;;;5058040;28;20205;-66
2022/11/24 07:27:56;;;;;;;1.02;0.80;;;;;;;;;;5056897;28;20189;-66
2022/11/24 07:30:24;;;;;;;0.80;0.80;;;;;;;;;;5057279;28;20216;-66
2022/11/24 07:32:51;;;;;;;0.70;0.70;;;;;;;;;;5056092;28;20232;-66
2022/11/24 07:35:20;;;;;;;0.70;0.70;;;;;;;;;;5051220;28;20212;-66
2022/11/24 07:37:47;;;;;;;1.02;0.93;;;;;;;;;;5036786;28;20225;-65
2022/11/24 07:40:15;;;;;;;0.80;0.80;;;;;;;;;;5037321;28;20206;-65
2022/11/24 07:42:42;;;;;;;0.90;0.85;;;;;;;;;;5036814;28;20202;-66
2022/11/24 07:45:10;;;;;;;0.88;0.88;;;;;;;;;;5037235;28;20197;-66
2022/11/24 07:47:39;;;;;;;0.60;0.60;;;;;;;;;;5037849;28;20193;-65
2022/11/24 07:50:08;;;;;;;0.70;0.70;;;;;;;;;;5037253;28;20536;-66
2022/11/24 07:52:37;;;;;;;0.82;0.80;;;;;;;;;;5047625;28;20197;-66
2022/11/24 07:55:04;;;;;;;0.80;0.80;;;;;;;;;;5057228;28;20563;-66
2022/11/24 07:57:32;;;;;;;0.68;0.68;;;;;;;;;;5044246;28;20222;-66
2022/11/24 07:59:59;;;;;;;0.70;0.70;;;;;;;;;;5037010;28;20242;-66
2022/11/24 08:02:27;;;;;;;0.80;0.80;;;;;;;;;;5036428;28;20193;-66
2022/11/24 08:04:54;;;;;;;0.80;0.75;;;;;;;;;;5037107;28;20202;-66
2022/11/24 08:07:21;;;;;;;0.70;0.70;;;;;;;;;;5045382;28;20198;-66
2022/11/24 08:09:51;;;;;;;0.77;0.75;;;;;;;;;;5037125;28;20206;-65
2022/11/24 08:12:20;;;;;;;0.70;0.70;;;;;;;;;;5037468;28;20622;-65
2022/11/24 08:14:48;;;;;;;0.70;0.70;;;;;;;;;;5037415;28;20216;-66
2022/11/24 08:17:16;;;;;;;1.00;0.80;;;;;;;;;;5050161;28;20228;-66
2022/11/24 08:19:43;;;;;;;0.90;0.90;;;;;;;;;;5037609;28;20501;-66
2022/11/24 08:22:10;;;;;;;0.90;0.70;;;;;;;;;;5037108;28;20514;-66
2022/11/24 08:24:44;;;;;;;1.00;0.80;;;;;;;;;;5036630;28;20260;-66
2022/11/24 08:27:13;;;;;;;0.80;0.73;;;;;;;;;;5036906;28;20232;-66
2022/11/24 08:29:41;;;;;;;1.80;0.93;;;;;;;;;;5037278;28;20606;-66
2022/11/24 08:32:08;;;;;;;1.20;0.88;;;;;;;;;;5036723;28;20603;-66
2022/11/24 08:34:36;;;;;;;0.80;0.65;;;;;;;;;;5036776;28;20194;-66
2022/11/24 08:37:04;;;;;;;1.23;0.80;;;;;;;;;;5034943;28;20300;-66
2022/11/24 08:39:31;;;;;;;52.20;39.97;;;;;;;;;;5036493;28;20201;-66
2022/11/24 08:41:59;;;;;;;45.42;34.65;;;;;;;;;;5046612;28;20201;-66
2022/11/24 08:44:28;;;;;;;23.92;18.52;;;;;;;;;;5056150;28;20236;-66
2022/11/24 08:46:56;;;;;;;22.70;17.02;;;;;;;;;;5045644;28;20263;-66
2022/11/24 08:49:23;;;;;;;21.50;16.80;;;;;;;;;;5037004;28;20190;-66
2022/11/24 08:51:51;;;;;;;21.40;16.50;;;;;;;;;;5034481;28;20304;-66
2022/11/24 08:54:19;;;;;;;19.85;14.75;;;;;;;;;;5037051;28;20193;-66
2022/11/24 08:56:47;;;;;;;17.98;14.02;;;;;;;;;;5035197;28;20308;-66
2022/11/24 08:59:14;;;;;;;20.15;15.65;;;;;;;;;;5035230;28;20233;-66
2022/11/24 09:01:43;;;;;;;20.63;17.70;;;;;;;;;;5043512;28;20649;-66
2022/11/24 09:04:10;;;;;;;18.98;15.63;;;;;;;;;;5055902;28;20204;-66
2022/11/24 09:06:38;;;;;;;17.58;13.85;;;;;;;;;;5054468;28;20224;-66
2022/11/24 09:09:05;;;;;;;15.57;13.25;;;;;;;;;;5044434;28;20204;-66
2022/11/24 09:11:34;;;;;;;17.25;13.15;;;;;;;;;;5053377;28;20216;-66
2022/11/24 09:14:02;;;;;;;16.45;13.13;;;;;;;;;;5039107;28;20202;-66
2022/11/24 09:16:30;;;;;;;13.90;12.40;;;;;;;;;;5034380;28;20507;-66
2022/11/24 09:18:59;;;;;;;13.90;11.65;;;;;;;;;;5049834;28;20225;-66
2022/11/24 09:21:26;;;;;;;13.63;10.98;;;;;;;;;;5053240;28;20211;-66
2022/11/24 09:23:54;;;;;;;12.52;10.57;;;;;;;;;;5053437;28;20222;-66
2022/11/24 09:26:23;;;;;;;11.93;10.40;;;;;;;;;;5044502;28;20292;-66
2022/11/24 09:28:53;;;;;;;11.50;9.95;;;;;;;;;;5033992;28;20197;-66
2022/11/24 09:31:21;;;;;;;12.65;9.35;;;;;;;;;;5034706;28;20202;-66
2022/11/24 09:33:48;;;;;;;13.23;9.75;;;;;;;;;;5034979;28;20205;-66
2022/11/24 09:36:17;;;;;;;9.77;8.40;;;;;;;;;;5034989;28;20213;-66
2022/11/24 09:38:45;;;;;;;11.05;8.70;;;;;;;;;;5041365;28;20232;-66
2022/11/24 09:41:28;;;;;;;9.15;7.57;;;;;;;;;;5042289;28;20201;-66
2022/11/24 09:44:01;;;;;;;11.82;10.73;;;;;;;;;;5048869;28;20560;-66
2022/11/24 09:46:31;;;;;;;12.10;10.80;;;;;;;;;;5053803;28;20201;-66
2022/11/24 09:48:59;;;;;;;11.95;9.93;;;;;;;;;;5039171;28;20197;-66
2022/11/24 09:51:31;;;;;;;10.13;9.13;;;;;;;;;;5033834;28;20202;-66
2022/11/24 09:54:02;;;;;;;10.23;9.15;;;;;;;;;;5033993;28;20261;-66
2022/11/24 09:56:31;;;;;;;9.70;8.70;;;;;;;;;;5037620;28;20197;-66
2022/11/24 09:59:01;;;;;;;10.20;9.25;;;;;;;;;;5053521;28;20225;-66
2022/11/24 10:01:30;;;;;;;9.48;8.20;;;;;;;;;;5047422;28;20324;-66
2022/11/24 10:03:58;;;;;;;8.80;8.00;;;;;;;;;;5034012;28;20201;-66
2022/11/24 10:06:26;;;;;;;8.38;7.57;;;;;;;;;;5034443;28;20201;-66
2022/11/24 10:09:08;;;;;;;8.57;7.68;;;;;;;;;;5041289;28;20208;-66
2022/11/24 10:11:38;;;;;;;8.80;7.90;;;;;;;;;;5033968;28;20200;-66
2022/11/24 10:14:17;;;;;;;8.65;7.30;;;;;;;;;;5034414;28;20201;-66
2022/11/24 10:16:50;;;;;;;7.28;6.57;;;;;;;;;;5034379;28;20193;-66
2022/11/24 10:19:24;;;;;;;7.72;6.95;;;;;;;;;;5032924;28;20221;-66
2022/11/24 10:21:59;;;;;;;6.97;6.20;;;;;;;;;;5034615;28;20200;-66
2022/11/24 10:24:47;;;;;;;6.97;6.30;;;;;;;;;;5033448;28;20209;-66
2022/11/24 10:27:17;;;;;;;7.20;5.45;;;;;;;;;;5048899;28;20212;-66
2022/11/24 10:29:45;;;;;;;6.25;5.60;;;;;;;;;;5033815;28;20201;-66
2022/11/24 10:32:16;;;;;;;6.45;5.85;;;;;;;;;;5034389;28;20201;-66
2022/11/24 10:34:44;;;;;;;7.28;5.32;;;;;;;;;;5038311;28;20621;-66
2022/11/24 10:37:14;;;;;;;5.85;5.25;;;;;;;;;;5037710;28;20213;-67
2022/11/24 10:39:49;;;;;;;5.63;5.10;;;;;;;;;;5050027;28;20228;-65
2022/11/24 10:42:18;;;;;;;5.57;4.80;;;;;;;;;;5056578;28;20499;-65
2022/11/24 10:44:46;;;;;;;5.75;4.97;;;;;;;;;;5053421;28;20189;-66
2022/11/24 10:47:21;;;;;;;6.72;5.25;;;;;;;;;;5037219;28;20201;-66
2022/11/24 10:49:53;;;;;;;4.93;4.35;;;;;;;;;;5054953;28;20621;-66
2022/11/24 10:52:20;;;;;;;5.07;4.57;;;;;;;;;;5047995;28;20190;-66
2022/11/24 10:54:56;;;;;;;4.40;4.00;;;;;;;;;;5042863;28;20197;-67
2022/11/24 10:57:31;;;;;;;4.40;4.00;;;;;;;;;;5055414;28;20202;-66
2022/11/24 10:59:58;;;;;;;4.47;3.95;;;;;;;;;;5048534;28;20239;-66
2022/11/24 11:02:34;;;;;;;4.28;3.88;;;;;;;;;;5041438;28;20197;-66
2022/11/24 11:05:22;;;;;;;3.90;3.50;;;;;;;;;;5041947;28;20193;-66
2022/11/24 11:07:50;;;;;;;4.07;3.60;;;;;;;;;;5040304;28;20197;-66
2022/11/24 11:10:21;;;;;;;3.45;3.15;;;;;;;;;;5056351;28;20205;-66
2022/11/24 11:12:49;;;;;;;4.22;3.78;;;;;;;;;;5056335;28;20201;-66
2022/11/24 11:15:24;;;;;;;3.53;3.20;;;;;;;;;;5056767;28;20231;-66
2022/11/24 11:17:56;;;;;;;3.58;3.28;;;;;;;;;;5056039;28;20279;-66
2022/11/24 11:20:27;;;;;;;3.85;3.42;;;;;;;;;;5049307;28;20551;-66
2022/11/24 11:22:55;;;;;;;3.95;3.28;;;;;;;;;;5038983;28;20559;-66
2022/11/24 11:25:26;;;;;;;3.72;3.30;;;;;;;;;;5036335;28;20205;-64
2022/11/24 11:28:11;;;;;;;3.15;2.85;;;;;;;;;;5037057;28;20579;-64
2022/11/24 11:30:40;;;;;;;4.60;4.20;;;;;;;;;;5035687;28;20660;-64
2022/11/24 11:33:19;;;;;;;4.65;4.15;;;;;;;;;;5035592;28;20770;-64
2022/11/24 11:35:47;;;;;;;4.25;3.85;;;;;;;;;;5036594;28;20212;-65
2022/11/24 11:38:15;;;;;;;3.95;3.65;;;;;;;;;;5051952;28;20194;-65
2022/11/24 11:40:44;;;;;;;3.90;3.50;;;;;;;;;;5035753;28;20227;-65
2022/11/24 11:43:16;;;;;;;4.05;3.67;;;;;;;;;;5035056;28;20267;-65
2022/11/24 11:45:45;;;;;;;5.22;3.63;;;;;;;;;;5039226;28;20200;-65
2022/11/24 11:48:20;;;;;;;4.05;3.40;;;;;;;;;;5048103;28;20198;-65
2022/11/24 11:50:50;;;;;;;4.50;3.33;;;;;;;;;;5034958;28;20787;-64
2022/11/24 11:53:24;;;;;;;5.15;3.60;;;;;;;;;;5034738;28;20208;-65
2022/11/24 11:56:00;;;;;;;3.58;3.28;;;;;;;;;;5035044;28;20233;-65
2022/11/24 11:58:46;;;;;;;5.00;4.07;;;;;;;;;;5048257;28;20220;-65
2022/11/24 12:01:19;;;;;;;6.03;4.05;;;;;;;;;;5051643;28;20244;-64
2022/11/24 12:03:57;;;;;;;4.10;3.60;;;;;;;;;;5034257;28;20285;-65
2022/11/24 12:06:32;;;;;;;5.47;3.90;;;;;;;;;;5034896;28;20206;-65
2022/11/24 12:09:09;;;;;;;4.80;3.38;;;;;;;;;;5035086;28;20482;-65
2022/11/24 12:11:41;;;;;;;3.95;3.53;;;;;;;;;;5035177;28;20201;-64
2022/11/24 12:14:14;;;;;;;5.55;3.47;;;;;;;;;;5034934;28;20206;-65
2022/11/24 12:16:45;;;;;;;3.55;3.13;;;;;;;;;;5035853;28;20197;-65
2022/11/24 12:19:20;;;;;;;4.47;3.40;;;;;;;;;;5035125;28;20226;-64
2022/11/24 12:21:52;;;;;;;4.78;2.97;;;;;;;;;;5035336;28;20489;-65
2022/11/24 12:24:23;;;;;;;3.75;3.30;;;;;;;;;;5035535;28;20699;-64
2022/11/24 12:26:55;;;;;;;5.55;3.20;;;;;;;;;;5035718;28;20197;-65
2022/11/24 12:29:49;;;;;;;3.35;2.70;;;;;;;;;;5036102;28;20212;-65
2022/11/24 12:32:25;;;;;;;11.45;10.52;;;;;;;;;;5035818;28;20493;-65
2022/11/24 12:34:55;;;;;;;10.50;9.50;;;;;;;;;;5034362;28;20193;-64
2022/11/24 12:37:37;;;;;;;7.57;6.88;;;;;;;;;;5034146;28;20201;-65
2022/11/24 12:40:05;;;;;;;8.57;6.90;;;;;;;;;;5035988;28;20248;-65
2022/11/24 12:42:43;;;;;;;7.65;6.95;;;;;;;;;;5054278;28;20212;-65
2022/11/24 12:45:15;;;;;;;7.70;6.65;;;;;;;;;;5054094;28;20215;-65
2022/11/24 12:48:02;;;;;;;7.15;6.45;;;;;;;;;;5053325;28;20193;-65
2022/11/24 12:50:30;;;;;;;6.93;6.05;;;;;;;;;;5050085;28;20297;-65
2022/11/24 12:53:00;;;;;;;6.53;5.93;;;;;;;;;;5053338;28;20201;-65
2022/11/24 12:55:31;;;;;;;6.22;5.63;;;;;;;;;;5054130;28;20641;-64
2022/11/24 12:58:04;;;;;;;5.80;5.30;;;;;;;;;;5043066;28;20202;-64
2022/11/24 13:00:35;;;;;;;5.82;5.32;;;;;;;;;;5033572;28;20229;-64
2022/11/24 13:03:21;;;;;;;6.32;5.78;;;;;;;;;;5051177;28;20196;-65
2022/11/24 13:05:52;;;;;;;6.32;5.32;;;;;;;;;;5045739;28;20193;-64
2022/11/24 13:08:20;;;;;;;6.07;4.70;;;;;;;;;;5033663;28;20201;-65
2022/11/24 13:10:48;;;;;;;6.03;4.45;;;;;;;;;;5034779;28;20470;-65
2022/11/24 13:13:17;;;;;;;5.30;4.80;;;;;;;;;;5034007;28;20193;-65
2022/11/24 13:16:03;;;;;;;5.00;4.53;;;;;;;;;;5033651;28;20211;-65
2022/11/24 13:18:47;;;;;;;5.05;4.10;;;;;;;;;;5049653;28;20203;-65
2022/11/24 13:21:49;;;;;;;4.75;4.25;;;;;;;;;;5045633;28;20563;-65
2022/11/24 13:24:24;;;;;;;4.78;3.78;;;;;;;;;;5033888;28;20205;-65
2022/11/24 13:26:52;;;;;;;4.40;3.80;;;;;;;;;;5034268;28;20204;-65
2022/11/24 13:29:34;;;;;;;5.60;3.92;;;;;;;;;;5034050;28;20201;-65
2022/11/24 13:32:20;;;;;;;4.65;3.72;;;;;;;;;;5040969;28;20299;-65
2022/11/24 13:35:03;;;;;;;4.30;3.85;;;;;;;;;;5052311;28;20266;-65
2022/11/24 13:37:50;;;;;;;3.80;3.40;;;;;;;;;;5038174;28;20485;-65
2022/11/24 13:40:36;;;;;;;3.85;3.53;;;;;;;;;;5032912;28;20261;-65
2022/11/24 13:43:23;;;;;;;4.15;3.40;;;;;;;;;;5033764;28;20514;-65
2022/11/24 13:45:52;;;;;;;3.88;3.45;;;;;;;;;;5033959;28;20206;-65
2022/11/24 13:48:53;;;;;;;3.22;2.90;;;;;;;;;;5033421;28;20202;-65
2022/11/24 13:51:24;;;;;;;3.42;2.97;;;;;;;;;;4970942;28;20203;-65
2022/11/24 13:53:53;;;;;;;3.83;3.20;;;;;;;;;;4953218;28;20200;-64
2022/11/24 13:56:25;;;;;;;4.22;3.05;;;;;;;;;;4992848;28;20205;-65
2022/11/24 13:58:54;;;;;;;3.28;2.95;;;;;;;;;;5049564;28;20201;-65
2022/11/24 14:01:24;;;;;;;2.88;2.53;;;;;;;;;;5050184;28;20673;-65
2022/11/24 14:04:06;;;;;;;3.25;2.80;;;;;;;;;;5040270;28;20193;-65
2022/11/24 14:06:37;;;;;;;3.45;3.00;;;;;;;;;;5034526;28;20547;-64
2022/11/24 14:09:08;;;;;;;3.45;2.25;;;;;;;;;;5032894;28;20198;-64
2022/11/24 14:11:35;;;;;;;3.33;2.80;;;;;;;;;;5033418;28;20198;-65
2022/11/24 14:14:14;;;;;;;2.83;2.63;;;;;;;;;;5033508;28;20209;-65
2022/11/24 14:16:42;;;;;;;2.80;2.58;;;;;;;;;;5034754;28;20272;-64
2022/11/24 14:19:10;;;;;;;3.42;2.53;;;;;;;;;;5034253;28;20221;-65
2022/11/24 14:21:40;;;;;;;3.88;2.50;;;;;;;;;;5033556;28;20205;-65
2022/11/24 14:24:10;;;;;;;2.95;2.38;;;;;;;;;;5032985;28;20308;-65
2022/11/24 14:26:39;;;;;;;3.40;2.17;;;;;;;;;;5032497;28;20197;-65
2022/11/24 14:29:07;;;;;;;2.92;2.25;;;;;;;;;;5032328;28;20194;-65
2022/11/24 14:31:35;;;;;;;3.10;2.08;;;;;;;;;;5037003;28;20197;-65
2022/11/24 14:34:16;;;;;;;2.33;2.13;;;;;;;;;;5052560;28;20197;-65
2022/11/24 14:36:44;;;;;;;2.30;2.10;;;;;;;;;;5051747;28;20499;-64
2022/11/24 14:39:15;;;;;;;2.70;2.30;;;;;;;;;;5049687;28;20208;-65
2022/11/24 14:41:43;;;;;;;2.50;2.03;;;;;;;;;;5031860;28;20700;-65
2022/11/24 14:44:17;;;;;;;2.33;1.90;;;;;;;;;;5032819;28;20209;-65
2022/11/24 14:46:45;;;;;;;2.45;2.15;;;;;;;;;;5036557;28;20197;-64
2022/11/24 14:49:19;;;;;;;2.38;2.08;;;;;;;;;;5050628;28;20200;-65
2022/11/24 14:51:47;;;;;;;2.10;1.70;;;;;;;;;;5045296;28;20193;-65
2022/11/24 14:54:17;;;;;;;2.50;1.90;;;;;;;;;;5044223;28;20197;-65
2022/11/24 14:56:56;;;;;;;1.70;1.60;;;;;;;;;;5042136;28;20212;-65
2022/11/24 14:59:25;;;;;;;2.75;2.00;;;;;;;;;;5031093;28;20217;-64
2022/11/24 15:01:52;;;;;;;2.97;2.10;;;;;;;;;;5038512;28;20474;-64
2022/11/24 15:04:22;;;;;;;2.15;1.83;;;;;;;;;;5051751;28;20543;-65